sensor_id;sensor_type;location;lat;lon;timestamp;P1;durP1;ratioP1;P2;durP2;ratioP2
67278;SDS011;54193;53.746;10.058;2023-04-03T00:00:26;9.20;;;2.27;;
67278;SDS011;54193;53.746;10.058;2023-04-03T00:03:12;6.88;;;2.03;;
67278;SDS011;54193;53.746;10.058;2023-04-03T00:05:58;7.63;;;2.05;;
67278;SDS011;54193;53.746;10.058;2023-04-03T00:08:43;7.18;;;2.20;;
67278;SDS011;54193;53.746;10.058;2023-04-03T00:11:29;6.32;;;2.10;;
67278;SDS011;54193;53.746;10.058;2023-04-03T00:14:15;6.93;;;2.00;;
67278;SDS011;54193;53.746;10.058;2023-04-03T00:17:01;8.35;;;1.98;;
67278;SDS011;54193;53.746;10.058;2023-04-03T00:19:47;5.53;;;1.67;;
67278;SDS011;54193;53.746;10.058;2023-04-03T00:22:32;6.22;;;1.67;;
67278;SDS011;54193;53.746;10.058;2023-04-03T00:25:18;7.80;;;1.85;;
67278;SDS011;54193;53.746;10.058;2023-04-03T00:28:04;5.80;;;1.90;;
67278;SDS011;54193;53.746;10.058;2023-04-03T00:30:50;6.07;;;1.95;;
67278;SDS011;54193;53.746;10.058;2023-04-03T00:33:36;7.15;;;1.80;;
67278;SDS011;54193;53.746;10.058;2023-04-03T00:36:22;6.65;;;1.90;;
67278;SDS011;54193;53.746;10.058;2023-04-03T00:39:07;5.97;;;1.80;;
67278;SDS011;54193;53.746;10.058;2023-04-03T00:41:53;4.82;;;1.67;;
67278;SDS011;54193;53.746;10.058;2023-04-03T00:47:24;6.27;;;1.73;;
67278;SDS011;54193;53.746;10.058;2023-04-03T00:50:10;6.63;;;1.73;;
67278;SDS011;54193;53.746;10.058;2023-04-03T00:52:56;7.68;;;2.00;;
67278;SDS011;54193;53.746;10.058;2023-04-03T00:55:43;5.30;;;2.00;;
67278;SDS011;54193;53.746;10.058;2023-04-03T00:58:33;6.53;;;2.20;;
67278;SDS011;54193;53.746;10.058;2023-04-03T01:01:24;6.68;;;1.90;;
67278;SDS011;54193;53.746;10.058;2023-04-03T01:07:22;6.20;;;2.00;;
67278;SDS011;54193;53.746;10.058;2023-04-03T01:10:12;6.10;;;1.90;;
67278;SDS011;54193;53.746;10.058;2023-04-03T01:13:00;5.88;;;1.83;;
67278;SDS011;54193;53.746;10.058;2023-04-03T01:15:46;6.67;;;2.40;;
67278;SDS011;54193;53.746;10.058;2023-04-03T01:18:32;6.75;;;2.00;;
67278;SDS011;54193;53.746;10.058;2023-04-03T01:24:35;6.20;;;2.03;;
67278;SDS011;54193;53.746;10.058;2023-04-03T01:27:24;8.15;;;2.28;;
67278;SDS011;54193;53.746;10.058;2023-04-03T01:30:09;6.43;;;2.03;;
67278;SDS011;54193;53.746;10.058;2023-04-03T01:32:56;6.22;;;2.03;;
67278;SDS011;54193;53.746;10.058;2023-04-03T01:35:42;6.85;;;2.28;;
67278;SDS011;54193;53.746;10.058;2023-04-03T01:38:27;4.85;;;1.85;;
67278;SDS011;54193;53.746;10.058;2023-04-03T01:41:13;7.05;;;1.88;;
67278;SDS011;54193;53.746;10.058;2023-04-03T01:43:59;5.40;;;1.80;;
67278;SDS011;54193;53.746;10.058;2023-04-03T01:46:45;6.80;;;1.95;;
67278;SDS011;54193;53.746;10.058;2023-04-03T01:49:30;8.02;;;1.90;;
67278;SDS011;54193;53.746;10.058;2023-04-03T01:52:16;6.40;;;1.90;;
67278;SDS011;54193;53.746;10.058;2023-04-03T01:55:02;7.88;;;1.92;;
67278;SDS011;54193;53.746;10.058;2023-04-03T01:57:47;7.75;;;2.10;;
67278;SDS011;54193;53.746;10.058;2023-04-03T02:00:33;5.78;;;1.90;;
67278;SDS011;54193;53.746;10.058;2023-04-03T02:03:19;7.75;;;2.05;;
67278;SDS011;54193;53.746;10.058;2023-04-03T02:06:05;7.63;;;2.00;;
67278;SDS011;54193;53.746;10.058;2023-04-03T02:08:51;5.88;;;1.73;;
67278;SDS011;54193;53.746;10.058;2023-04-03T02:11:36;5.43;;;1.60;;
67278;SDS011;54193;53.746;10.058;2023-04-03T02:14:22;6.82;;;2.00;;
67278;SDS011;54193;53.746;10.058;2023-04-03T02:17:08;6.45;;;1.83;;
67278;SDS011;54193;53.746;10.058;2023-04-03T02:19:54;7.73;;;1.80;;
67278;SDS011;54193;53.746;10.058;2023-04-03T02:22:40;7.05;;;1.50;;
67278;SDS011;54193;53.746;10.058;2023-04-03T02:25:26;6.25;;;1.83;;
67278;SDS011;54193;53.746;10.058;2023-04-03T02:28:11;5.20;;;1.80;;
67278;SDS011;54193;53.746;10.058;2023-04-03T02:30:57;7.93;;;2.10;;
67278;SDS011;54193;53.746;10.058;2023-04-03T02:33:42;5.35;;;1.83;;
67278;SDS011;54193;53.746;10.058;2023-04-03T02:36:28;5.72;;;1.77;;
67278;SDS011;54193;53.746;10.058;2023-04-03T02:39:14;5.37;;;1.50;;
67278;SDS011;54193;53.746;10.058;2023-04-03T02:42:00;6.30;;;1.52;;
67278;SDS011;54193;53.746;10.058;2023-04-03T02:44:45;8.38;;;1.70;;
67278;SDS011;54193;53.746;10.058;2023-04-03T02:47:31;5.17;;;1.67;;
67278;SDS011;54193;53.746;10.058;2023-04-03T02:50:17;5.47;;;1.75;;
67278;SDS011;54193;53.746;10.058;2023-04-03T02:53:03;6.25;;;2.00;;
67278;SDS011;54193;53.746;10.058;2023-04-03T02:55:48;8.15;;;1.70;;
67278;SDS011;54193;53.746;10.058;2023-04-03T02:58:34;5.45;;;1.70;;
67278;SDS011;54193;53.746;10.058;2023-04-03T03:01:20;7.00;;;1.80;;
67278;SDS011;54193;53.746;10.058;2023-04-03T03:04:06;5.18;;;1.65;;
67278;SDS011;54193;53.746;10.058;2023-04-03T03:06:52;8.13;;;1.90;;
67278;SDS011;54193;53.746;10.058;2023-04-03T03:09:37;7.88;;;1.98;;
67278;SDS011;54193;53.746;10.058;2023-04-03T03:12:23;9.02;;;1.65;;
67278;SDS011;54193;53.746;10.058;2023-04-03T03:15:10;5.00;;;1.77;;
67278;SDS011;54193;53.746;10.058;2023-04-03T03:17:55;5.70;;;1.90;;
67278;SDS011;54193;53.746;10.058;2023-04-03T03:20:41;8.38;;;1.90;;
67278;SDS011;54193;53.746;10.058;2023-04-03T03:23:27;6.22;;;1.70;;
67278;SDS011;54193;53.746;10.058;2023-04-03T03:26:13;5.57;;;1.67;;
67278;SDS011;54193;53.746;10.058;2023-04-03T03:28:59;4.88;;;1.55;;
67278;SDS011;54193;53.746;10.058;2023-04-03T03:31:45;7.38;;;1.73;;
67278;SDS011;54193;53.746;10.058;2023-04-03T03:34:31;4.80;;;1.33;;
67278;SDS011;54193;53.746;10.058;2023-04-03T03:37:16;7.13;;;2.00;;
67278;SDS011;54193;53.746;10.058;2023-04-03T03:40:02;7.07;;;1.65;;
67278;SDS011;54193;53.746;10.058;2023-04-03T03:42:48;6.30;;;2.10;;
67278;SDS011;54193;53.746;10.058;2023-04-03T03:45:33;7.35;;;2.00;;
67278;SDS011;54193;53.746;10.058;2023-04-03T03:48:22;5.47;;;1.70;;
67278;SDS011;54193;53.746;10.058;2023-04-03T03:51:08;6.75;;;1.85;;
67278;SDS011;54193;53.746;10.058;2023-04-03T03:53:53;6.03;;;2.08;;
67278;SDS011;54193;53.746;10.058;2023-04-03T03:56:39;8.57;;;1.92;;
67278;SDS011;54193;53.746;10.058;2023-04-03T03:59:25;7.85;;;2.30;;
67278;SDS011;54193;53.746;10.058;2023-04-03T04:02:11;5.97;;;2.20;;
67278;SDS011;54193;53.746;10.058;2023-04-03T04:04:57;7.82;;;2.25;;
67278;SDS011;54193;53.746;10.058;2023-04-03T04:07:42;9.20;;;2.40;;
67278;SDS011;54193;53.746;10.058;2023-04-03T04:10:28;8.07;;;2.00;;
67278;SDS011;54193;53.746;10.058;2023-04-03T04:13:13;8.52;;;1.70;;
67278;SDS011;54193;53.746;10.058;2023-04-03T04:15:59;6.30;;;2.20;;
67278;SDS011;54193;53.746;10.058;2023-04-03T04:18:45;7.95;;;2.10;;
67278;SDS011;54193;53.746;10.058;2023-04-03T04:21:31;7.22;;;2.30;;
67278;SDS011;54193;53.746;10.058;2023-04-03T04:24:16;9.50;;;2.75;;
67278;SDS011;54193;53.746;10.058;2023-04-03T04:27:02;8.40;;;2.38;;
67278;SDS011;54193;53.746;10.058;2023-04-03T04:29:47;9.27;;;2.80;;
67278;SDS011;54193;53.746;10.058;2023-04-03T04:32:33;10.13;;;3.50;;
67278;SDS011;54193;53.746;10.058;2023-04-03T04:35:19;11.55;;;2.72;;
67278;SDS011;54193;53.746;10.058;2023-04-03T04:38:05;8.27;;;2.80;;
67278;SDS011;54193;53.746;10.058;2023-04-03T04:40:51;7.35;;;2.53;;
67278;SDS011;54193;53.746;10.058;2023-04-03T04:43:36;10.38;;;3.10;;
67278;SDS011;54193;53.746;10.058;2023-04-03T04:46:23;11.00;;;2.92;;
67278;SDS011;54193;53.746;10.058;2023-04-03T04:49:08;7.22;;;2.22;;
67278;SDS011;54193;53.746;10.058;2023-04-03T04:51:54;7.97;;;2.38;;
67278;SDS011;54193;53.746;10.058;2023-04-03T04:54:40;9.75;;;2.70;;
67278;SDS011;54193;53.746;10.058;2023-04-03T04:57:25;7.57;;;2.60;;
67278;SDS011;54193;53.746;10.058;2023-04-03T05:00:11;8.50;;;3.03;;
67278;SDS011;54193;53.746;10.058;2023-04-03T05:02:58;6.70;;;2.25;;
67278;SDS011;54193;53.746;10.058;2023-04-03T05:05:43;11.00;;;2.70;;
67278;SDS011;54193;53.746;10.058;2023-04-03T05:08:29;7.25;;;2.58;;
67278;SDS011;54193;53.746;10.058;2023-04-03T05:11:15;8.70;;;2.63;;
67278;SDS011;54193;53.746;10.058;2023-04-03T05:14:00;5.82;;;2.40;;
67278;SDS011;54193;53.746;10.058;2023-04-03T05:16:46;6.70;;;2.47;;
67278;SDS011;54193;53.746;10.058;2023-04-03T05:19:32;6.85;;;2.17;;
67278;SDS011;54193;53.746;10.058;2023-04-03T05:22:18;5.10;;;2.10;;
67278;SDS011;54193;53.746;10.058;2023-04-03T05:25:04;6.97;;;2.20;;
67278;SDS011;54193;53.746;10.058;2023-04-03T05:27:50;8.32;;;2.58;;
67278;SDS011;54193;53.746;10.058;2023-04-03T05:30:36;7.68;;;2.47;;
67278;SDS011;54193;53.746;10.058;2023-04-03T05:33:22;8.10;;;2.50;;
67278;SDS011;54193;53.746;10.058;2023-04-03T05:36:08;8.90;;;3.38;;
67278;SDS011;54193;53.746;10.058;2023-04-03T05:38:54;13.90;;;4.47;;
67278;SDS011;54193;53.746;10.058;2023-04-03T05:41:41;13.23;;;5.63;;
67278;SDS011;54193;53.746;10.058;2023-04-03T05:44:27;11.82;;;4.55;;
67278;SDS011;54193;53.746;10.058;2023-04-03T05:47:12;10.63;;;4.60;;
67278;SDS011;54193;53.746;10.058;2023-04-03T05:49:58;10.80;;;4.88;;
67278;SDS011;54193;53.746;10.058;2023-04-03T05:52:44;12.67;;;4.90;;
67278;SDS011;54193;53.746;10.058;2023-04-03T05:55:32;12.18;;;4.95;;
67278;SDS011;54193;53.746;10.058;2023-04-03T05:58:18;12.25;;;5.70;;
67278;SDS011;54193;53.746;10.058;2023-04-03T06:01:04;12.07;;;5.43;;
67278;SDS011;54193;53.746;10.058;2023-04-03T06:03:50;13.95;;;6.05;;
67278;SDS011;54193;53.746;10.058;2023-04-03T06:06:49;13.63;;;5.20;;
67278;SDS011;54193;53.746;10.058;2023-04-03T06:09:39;14.35;;;6.00;;
67278;SDS011;54193;53.746;10.058;2023-04-03T06:12:25;11.05;;;4.35;;
67278;SDS011;54193;53.746;10.058;2023-04-03T06:15:10;13.40;;;6.00;;
67278;SDS011;54193;53.746;10.058;2023-04-03T06:17:57;9.98;;;4.40;;
67278;SDS011;54193;53.746;10.058;2023-04-03T06:20:42;11.83;;;4.90;;
67278;SDS011;54193;53.746;10.058;2023-04-03T06:23:28;10.60;;;3.42;;
67278;SDS011;54193;53.746;10.058;2023-04-03T06:26:14;11.50;;;3.90;;
67278;SDS011;54193;53.746;10.058;2023-04-03T06:29:00;9.87;;;3.60;;
67278;SDS011;54193;53.746;10.058;2023-04-03T06:31:45;7.50;;;3.13;;
67278;SDS011;54193;53.746;10.058;2023-04-03T06:34:32;9.35;;;4.07;;
67278;SDS011;54193;53.746;10.058;2023-04-03T06:37:18;7.20;;;2.90;;
67278;SDS011;54193;53.746;10.058;2023-04-03T06:40:09;9.18;;;2.75;;
67278;SDS011;54193;53.746;10.058;2023-04-03T06:43:03;7.43;;;2.30;;
67278;SDS011;54193;53.746;10.058;2023-04-03T06:45:48;5.28;;;2.30;;
67278;SDS011;54193;53.746;10.058;2023-04-03T06:48:34;7.60;;;2.70;;
67278;SDS011;54193;53.746;10.058;2023-04-03T06:51:22;10.90;;;2.90;;
67278;SDS011;54193;53.746;10.058;2023-04-03T06:54:13;5.18;;;1.60;;
67278;SDS011;54193;53.746;10.058;2023-04-03T06:57:00;4.50;;;2.00;;
67278;SDS011;54193;53.746;10.058;2023-04-03T06:59:45;4.15;;;0.90;;
67278;SDS011;54193;53.746;10.058;2023-04-03T07:02:31;8.13;;;1.75;;
67278;SDS011;54193;53.746;10.058;2023-04-03T07:05:17;6.30;;;1.20;;
67278;SDS011;54193;53.746;10.058;2023-04-03T07:08:03;5.22;;;1.10;;
67278;SDS011;54193;53.746;10.058;2023-04-03T07:10:49;6.38;;;1.88;;
67278;SDS011;54193;53.746;10.058;2023-04-03T07:13:35;7.25;;;1.60;;
67278;SDS011;54193;53.746;10.058;2023-04-03T07:16:21;5.73;;;1.77;;
67278;SDS011;54193;53.746;10.058;2023-04-03T07:19:07;8.52;;;1.63;;
67278;SDS011;54193;53.746;10.058;2023-04-03T07:21:53;6.80;;;1.42;;
67278;SDS011;54193;53.746;10.058;2023-04-03T07:24:39;7.03;;;2.03;;
67278;SDS011;54193;53.746;10.058;2023-04-03T07:27:25;6.38;;;2.00;;
67278;SDS011;54193;53.746;10.058;2023-04-03T07:30:11;4.50;;;1.38;;
67278;SDS011;54193;53.746;10.058;2023-04-03T07:32:59;7.07;;;2.05;;
67278;SDS011;54193;53.746;10.058;2023-04-03T07:35:45;6.65;;;1.60;;
67278;SDS011;54193;53.746;10.058;2023-04-03T07:38:31;5.03;;;1.55;;
67278;SDS011;54193;53.746;10.058;2023-04-03T07:41:18;2.80;;;1.10;;
67278;SDS011;54193;53.746;10.058;2023-04-03T07:44:06;4.00;;;0.80;;
67278;SDS011;54193;53.746;10.058;2023-04-03T07:46:54;5.40;;;2.00;;
67278;SDS011;54193;53.746;10.058;2023-04-03T07:49:41;6.18;;;2.10;;
67278;SDS011;54193;53.746;10.058;2023-04-03T07:52:26;5.70;;;1.97;;
67278;SDS011;54193;53.746;10.058;2023-04-03T07:55:12;4.85;;;1.77;;
67278;SDS011;54193;53.746;10.058;2023-04-03T07:57:58;4.68;;;1.20;;
67278;SDS011;54193;53.746;10.058;2023-04-03T08:00:44;3.88;;;1.30;;
67278;SDS011;54193;53.746;10.058;2023-04-03T08:03:30;8.63;;;1.00;;
67278;SDS011;54193;53.746;10.058;2023-04-03T08:06:15;3.90;;;1.15;;
67278;SDS011;54193;53.746;10.058;2023-04-03T08:09:02;5.40;;;1.27;;
67278;SDS011;54193;53.746;10.058;2023-04-03T08:11:49;3.73;;;0.90;;
67278;SDS011;54193;53.746;10.058;2023-04-03T08:14:38;4.43;;;0.90;;
67278;SDS011;54193;53.746;10.058;2023-04-03T08:17:23;2.97;;;1.00;;
67278;SDS011;54193;53.746;10.058;2023-04-03T08:20:09;5.50;;;1.50;;
67278;SDS011;54193;53.746;10.058;2023-04-03T08:22:55;3.88;;;0.90;;
67278;SDS011;54193;53.746;10.058;2023-04-03T08:25:41;2.25;;;0.90;;
67278;SDS011;54193;53.746;10.058;2023-04-03T08:28:27;4.32;;;1.10;;
67278;SDS011;54193;53.746;10.058;2023-04-03T08:31:14;4.50;;;1.08;;
67278;SDS011;54193;53.746;10.058;2023-04-03T08:34:03;2.45;;;0.70;;
67278;SDS011;54193;53.746;10.058;2023-04-03T08:36:49;3.20;;;0.80;;
67278;SDS011;54193;53.746;10.058;2023-04-03T08:39:35;2.57;;;0.87;;
67278;SDS011;54193;53.746;10.058;2023-04-03T08:42:40;5.70;;;1.00;;
67278;SDS011;54193;53.746;10.058;2023-04-03T08:45:45;2.13;;;0.60;;
67278;SDS011;54193;53.746;10.058;2023-04-03T08:48:39;4.80;;;0.80;;
67278;SDS011;54193;53.746;10.058;2023-04-03T08:51:28;3.42;;;1.13;;
67278;SDS011;54193;53.746;10.058;2023-04-03T08:54:19;2.65;;;0.90;;
67278;SDS011;54193;53.746;10.058;2023-04-03T08:57:10;4.03;;;0.90;;
67278;SDS011;54193;53.746;10.058;2023-04-03T08:59:58;2.22;;;0.70;;
67278;SDS011;54193;53.746;10.058;2023-04-03T09:02:48;3.60;;;1.20;;
67278;SDS011;54193;53.746;10.058;2023-04-03T09:05:41;4.45;;;1.63;;
67278;SDS011;54193;53.746;10.058;2023-04-03T09:09:04;3.80;;;1.10;;
67278;SDS011;54193;53.746;10.058;2023-04-03T09:18:00;2.93;;;1.10;;
67278;SDS011;54193;53.746;10.058;2023-04-03T09:21:00;19.63;;;7.43;;
67278;SDS011;54193;53.746;10.058;2023-04-03T09:23:53;3.20;;;0.95;;
67278;SDS011;54193;53.746;10.058;2023-04-03T09:29:48;4.38;;;1.20;;
67278;SDS011;54193;53.746;10.058;2023-04-03T09:32:38;12.23;;;6.80;;
67278;SDS011;54193;53.746;10.058;2023-04-03T09:35:28;3.08;;;0.80;;
67278;SDS011;54193;53.746;10.058;2023-04-03T09:38:17;5.10;;;2.40;;
67278;SDS011;54193;53.746;10.058;2023-04-03T09:41:07;3.30;;;0.98;;
67278;SDS011;54193;53.746;10.058;2023-04-03T09:44:02;6.13;;;1.30;;
67278;SDS011;54193;53.746;10.058;2023-04-03T09:46:48;5.47;;;1.30;;
67278;SDS011;54193;53.746;10.058;2023-04-03T09:49:33;5.88;;;1.17;;
67278;SDS011;54193;53.746;10.058;2023-04-03T09:52:23;2.50;;;1.00;;
67278;SDS011;54193;53.746;10.058;2023-04-03T09:55:23;3.55;;;0.90;;
67278;SDS011;54193;53.746;10.058;2023-04-03T09:58:49;3.88;;;1.17;;
67278;SDS011;54193;53.746;10.058;2023-04-03T10:01:29;4.18;;;1.20;;
67278;SDS011;54193;53.746;10.058;2023-04-03T10:04:28;3.75;;;1.08;;
67278;SDS011;54193;53.746;10.058;2023-04-03T10:07:31;3.27;;;0.90;;
67278;SDS011;54193;53.746;10.058;2023-04-03T10:10:22;4.05;;;0.90;;
67278;SDS011;54193;53.746;10.058;2023-04-03T10:15:59;3.47;;;0.90;;
67278;SDS011;54193;53.746;10.058;2023-04-03T10:28:17;3.30;;;0.80;;
67278;SDS011;54193;53.746;10.058;2023-04-03T10:31:14;2.35;;;0.60;;
67278;SDS011;54193;53.746;10.058;2023-04-03T10:37:10;2.75;;;0.93;;
67278;SDS011;54193;53.746;10.058;2023-04-03T10:40:01;2.97;;;1.00;;
67278;SDS011;54193;53.746;10.058;2023-04-03T10:46:12;2.90;;;0.98;;
67278;SDS011;54193;53.746;10.058;2023-04-03T10:49:14;2.20;;;0.67;;
67278;SDS011;54193;53.746;10.058;2023-04-03T10:52:24;2.80;;;0.90;;
67278;SDS011;54193;53.746;10.058;2023-04-03T10:55:34;2.28;;;0.50;;
67278;SDS011;54193;53.746;10.058;2023-04-03T10:58:26;2.50;;;0.70;;
67278;SDS011;54193;53.746;10.058;2023-04-03T11:01:21;3.70;;;1.00;;
67278;SDS011;54193;53.746;10.058;2023-04-03T11:04:13;3.53;;;0.80;;
67278;SDS011;54193;53.746;10.058;2023-04-03T11:07:03;2.80;;;0.80;;
67278;SDS011;54193;53.746;10.058;2023-04-03T11:10:19;3.92;;;0.90;;
67278;SDS011;54193;53.746;10.058;2023-04-03T11:13:22;2.08;;;0.65;;
67278;SDS011;54193;53.746;10.058;2023-04-03T11:16:15;2.63;;;0.65;;
67278;SDS011;54193;53.746;10.058;2023-04-03T11:19:13;3.93;;;0.93;;
67278;SDS011;54193;53.746;10.058;2023-04-03T11:22:16;1.40;;;0.40;;
67278;SDS011;54193;53.746;10.058;2023-04-03T11:25:24;3.15;;;0.95;;
67278;SDS011;54193;53.746;10.058;2023-04-03T11:28:13;3.13;;;0.90;;
67278;SDS011;54193;53.746;10.058;2023-04-03T11:36:59;3.58;;;0.75;;
67278;SDS011;54193;53.746;10.058;2023-04-03T11:39:56;1.95;;;0.70;;
67278;SDS011;54193;53.746;10.058;2023-04-03T11:43:04;4.18;;;1.13;;
67278;SDS011;54193;53.746;10.058;2023-04-03T11:45:54;3.72;;;0.80;;
67278;SDS011;54193;53.746;10.058;2023-04-03T11:48:44;4.10;;;1.27;;
67278;SDS011;54193;53.746;10.058;2023-04-03T11:51:38;2.45;;;0.70;;
67278;SDS011;54193;53.746;10.058;2023-04-03T11:57:45;1.97;;;0.70;;
67278;SDS011;54193;53.746;10.058;2023-04-03T12:12:35;6.40;;;1.10;;
67278;SDS011;54193;53.746;10.058;2023-04-03T12:15:41;2.17;;;0.60;;
67278;SDS011;54193;53.746;10.058;2023-04-03T12:30:27;3.92;;;1.05;;
67278;SDS011;54193;53.746;10.058;2023-04-03T12:33:29;4.25;;;0.80;;
67278;SDS011;54193;53.746;10.058;2023-04-03T12:36:32;3.33;;;1.15;;
67278;SDS011;54193;53.746;10.058;2023-04-03T12:40:07;2.85;;;0.95;;
67278;SDS011;54193;53.746;10.058;2023-04-03T12:42:44;3.90;;;1.00;;
67278;SDS011;54193;53.746;10.058;2023-04-03T12:45:40;3.05;;;0.70;;
67278;SDS011;54193;53.746;10.058;2023-04-03T12:48:32;2.83;;;0.50;;
67278;SDS011;54193;53.746;10.058;2023-04-03T12:51:27;3.03;;;0.88;;
67278;SDS011;54193;53.746;10.058;2023-04-03T12:54:26;3.05;;;0.80;;
67278;SDS011;54193;53.746;10.058;2023-04-03T12:57:23;3.90;;;0.90;;
67278;SDS011;54193;53.746;10.058;2023-04-03T13:00:45;2.85;;;0.68;;
67278;SDS011;54193;53.746;10.058;2023-04-03T13:03:25;3.08;;;0.60;;
67278;SDS011;54193;53.746;10.058;2023-04-03T13:06:22;3.75;;;1.08;;
67278;SDS011;54193;53.746;10.058;2023-04-03T13:09:26;4.05;;;0.90;;
67278;SDS011;54193;53.746;10.058;2023-04-03T13:12:14;2.25;;;0.70;;
67278;SDS011;54193;53.746;10.058;2023-04-03T13:15:11;3.58;;;0.88;;
67278;SDS011;54193;53.746;10.058;2023-04-03T13:18:03;3.47;;;0.50;;
67278;SDS011;54193;53.746;10.058;2023-04-03T13:20:48;6.00;;;0.93;;
67278;SDS011;54193;53.746;10.058;2023-04-03T13:23:36;6.47;;;1.17;;
67278;SDS011;54193;53.746;10.058;2023-04-03T13:26:26;4.07;;;1.00;;
67278;SDS011;54193;53.746;10.058;2023-04-03T13:29:23;5.82;;;1.10;;
67278;SDS011;54193;53.746;10.058;2023-04-03T13:32:45;3.00;;;0.90;;
67278;SDS011;54193;53.746;10.058;2023-04-03T13:35:35;5.05;;;0.80;;
67278;SDS011;54193;53.746;10.058;2023-04-03T13:38:25;5.32;;;1.67;;
67278;SDS011;54193;53.746;10.058;2023-04-03T13:47:24;3.10;;;1.03;;
67278;SDS011;54193;53.746;10.058;2023-04-03T13:50:21;3.65;;;1.05;;
67278;SDS011;54193;53.746;10.058;2023-04-03T13:53:13;3.60;;;0.93;;
67278;SDS011;54193;53.746;10.058;2023-04-03T13:58:52;3.55;;;1.30;;
67278;SDS011;54193;53.746;10.058;2023-04-03T14:01:53;5.00;;;1.38;;
67278;SDS011;54193;53.746;10.058;2023-04-03T14:04:50;4.07;;;0.80;;
67278;SDS011;54193;53.746;10.058;2023-04-03T14:07:41;3.05;;;1.08;;
67278;SDS011;54193;53.746;10.058;2023-04-03T14:10:27;3.33;;;1.00;;
67278;SDS011;54193;53.746;10.058;2023-04-03T14:13:13;3.55;;;1.00;;
67278;SDS011;54193;53.746;10.058;2023-04-03T14:16:00;4.37;;;1.10;;
67278;SDS011;54193;53.746;10.058;2023-04-03T14:18:46;3.55;;;1.10;;
67278;SDS011;54193;53.746;10.058;2023-04-03T14:21:33;4.95;;;1.13;;
67278;SDS011;54193;53.746;10.058;2023-04-03T14:24:19;3.57;;;1.10;;
67278;SDS011;54193;53.746;10.058;2023-04-03T14:27:11;4.30;;;1.15;;
67278;SDS011;54193;53.746;10.058;2023-04-03T14:30:02;4.70;;;1.20;;
67278;SDS011;54193;53.746;10.058;2023-04-03T14:32:49;3.88;;;1.10;;
67278;SDS011;54193;53.746;10.058;2023-04-03T14:35:36;3.28;;;0.90;;
67278;SDS011;54193;53.746;10.058;2023-04-03T14:41:12;16.35;;;6.75;;
67278;SDS011;54193;53.746;10.058;2023-04-03T14:44:01;4.87;;;1.83;;
67278;SDS011;54193;53.746;10.058;2023-04-03T14:46:46;23.42;;;8.90;;
67278;SDS011;54193;53.746;10.058;2023-04-03T14:49:32;7.47;;;2.75;;
67278;SDS011;54193;53.746;10.058;2023-04-03T14:55:14;3.58;;;0.90;;
67278;SDS011;54193;53.746;10.058;2023-04-03T14:58:01;3.90;;;1.02;;
67278;SDS011;54193;53.746;10.058;2023-04-03T15:00:47;4.05;;;1.17;;
67278;SDS011;54193;53.746;10.058;2023-04-03T15:03:33;4.28;;;1.00;;
67278;SDS011;54193;53.746;10.058;2023-04-03T15:09:34;4.88;;;1.20;;
67278;SDS011;54193;53.746;10.058;2023-04-03T15:12:21;2.73;;;0.77;;
67278;SDS011;54193;53.746;10.058;2023-04-03T15:15:07;3.38;;;0.80;;
67278;SDS011;54193;53.746;10.058;2023-04-03T15:17:54;2.60;;;0.80;;
67278;SDS011;54193;53.746;10.058;2023-04-03T15:20:43;3.63;;;1.00;;
67278;SDS011;54193;53.746;10.058;2023-04-03T15:23:29;3.00;;;0.90;;
67278;SDS011;54193;53.746;10.058;2023-04-03T15:26:15;2.83;;;0.63;;
67278;SDS011;54193;53.746;10.058;2023-04-03T15:29:01;3.17;;;0.82;;
67278;SDS011;54193;53.746;10.058;2023-04-03T15:31:47;4.20;;;1.00;;
67278;SDS011;54193;53.746;10.058;2023-04-03T15:34:35;2.95;;;0.70;;
67278;SDS011;54193;53.746;10.058;2023-04-03T15:37:21;2.67;;;0.85;;
67278;SDS011;54193;53.746;10.058;2023-04-03T15:40:07;2.07;;;0.60;;
67278;SDS011;54193;53.746;10.058;2023-04-03T15:42:53;3.78;;;1.20;;
67278;SDS011;54193;53.746;10.058;2023-04-03T15:45:39;4.90;;;1.10;;
67278;SDS011;54193;53.746;10.058;2023-04-03T15:48:26;4.27;;;1.13;;
67278;SDS011;54193;53.746;10.058;2023-04-03T15:51:12;5.40;;;1.20;;
67278;SDS011;54193;53.746;10.058;2023-04-03T15:53:58;4.80;;;1.10;;
67278;SDS011;54193;53.746;10.058;2023-04-03T15:56:43;3.80;;;1.27;;
67278;SDS011;54193;53.746;10.058;2023-04-03T15:59:29;2.55;;;0.60;;
67278;SDS011;54193;53.746;10.058;2023-04-03T16:02:17;4.72;;;1.20;;
67278;SDS011;54193;53.746;10.058;2023-04-03T16:05:03;3.22;;;0.93;;
67278;SDS011;54193;53.746;10.058;2023-04-03T16:07:48;4.67;;;1.10;;
67278;SDS011;54193;53.746;10.058;2023-04-03T16:10:35;3.25;;;1.27;;
67278;SDS011;54193;53.746;10.058;2023-04-03T16:13:21;6.72;;;1.08;;
67278;SDS011;54193;53.746;10.058;2023-04-03T16:16:07;3.80;;;1.10;;
67278;SDS011;54193;53.746;10.058;2023-04-03T16:18:53;3.90;;;1.35;;
67278;SDS011;54193;53.746;10.058;2023-04-03T16:21:40;4.40;;;1.58;;
67278;SDS011;54193;53.746;10.058;2023-04-03T16:24:26;4.90;;;1.00;;
67278;SDS011;54193;53.746;10.058;2023-04-03T16:27:12;2.55;;;0.70;;
67278;SDS011;54193;53.746;10.058;2023-04-03T16:29:58;3.95;;;1.30;;
67278;SDS011;54193;53.746;10.058;2023-04-03T16:32:44;3.88;;;1.30;;
67278;SDS011;54193;53.746;10.058;2023-04-03T16:35:30;5.07;;;1.53;;
67278;SDS011;54193;53.746;10.058;2023-04-03T16:38:16;4.40;;;1.40;;
67278;SDS011;54193;53.746;10.058;2023-04-03T16:41:04;4.07;;;1.20;;
67278;SDS011;54193;53.746;10.058;2023-04-03T16:43:49;3.27;;;1.00;;
67278;SDS011;54193;53.746;10.058;2023-04-03T16:46:35;4.35;;;1.38;;
67278;SDS011;54193;53.746;10.058;2023-04-03T16:49:21;3.83;;;0.97;;
67278;SDS011;54193;53.746;10.058;2023-04-03T16:52:07;3.28;;;0.82;;
67278;SDS011;54193;53.746;10.058;2023-04-03T16:54:52;4.32;;;0.93;;
67278;SDS011;54193;53.746;10.058;2023-04-03T16:57:40;3.07;;;0.90;;
67278;SDS011;54193;53.746;10.058;2023-04-03T17:00:27;4.18;;;1.02;;
67278;SDS011;54193;53.746;10.058;2023-04-03T17:03:15;4.97;;;1.10;;
67278;SDS011;54193;53.746;10.058;2023-04-03T17:06:01;3.90;;;1.07;;
67278;SDS011;54193;53.746;10.058;2023-04-03T17:08:47;4.43;;;1.58;;
67278;SDS011;54193;53.746;10.058;2023-04-03T17:11:33;5.15;;;1.63;;
67278;SDS011;54193;53.746;10.058;2023-04-03T17:14:19;3.85;;;1.27;;
67278;SDS011;54193;53.746;10.058;2023-04-03T17:17:05;4.47;;;1.30;;
67278;SDS011;54193;53.746;10.058;2023-04-03T17:19:51;3.40;;;1.20;;
67278;SDS011;54193;53.746;10.058;2023-04-03T17:22:39;4.55;;;1.30;;
67278;SDS011;54193;53.746;10.058;2023-04-03T17:25:24;4.03;;;1.13;;
67278;SDS011;54193;53.746;10.058;2023-04-03T17:28:10;6.07;;;1.33;;
67278;SDS011;54193;53.746;10.058;2023-04-03T17:30:56;3.17;;;1.08;;
67278;SDS011;54193;53.746;10.058;2023-04-03T17:33:43;4.37;;;1.03;;
67278;SDS011;54193;53.746;10.058;2023-04-03T17:36:30;2.85;;;0.80;;
67278;SDS011;54193;53.746;10.058;2023-04-03T17:39:16;3.83;;;1.00;;
67278;SDS011;54193;53.746;10.058;2023-04-03T17:42:02;2.33;;;0.70;;
67278;SDS011;54193;53.746;10.058;2023-04-03T17:44:47;5.28;;;1.30;;
67278;SDS011;54193;53.746;10.058;2023-04-03T17:47:33;2.88;;;0.98;;
67278;SDS011;54193;53.746;10.058;2023-04-03T17:50:19;5.85;;;1.60;;
67278;SDS011;54193;53.746;10.058;2023-04-03T17:53:05;5.10;;;1.73;;
67278;SDS011;54193;53.746;10.058;2023-04-03T17:55:50;3.67;;;1.08;;
67278;SDS011;54193;53.746;10.058;2023-04-03T17:58:36;2.88;;;1.05;;
67278;SDS011;54193;53.746;10.058;2023-04-03T18:01:26;5.57;;;1.30;;
67278;SDS011;54193;53.746;10.058;2023-04-03T18:04:13;5.53;;;1.60;;
67278;SDS011;54193;53.746;10.058;2023-04-03T18:06:59;5.90;;;2.20;;